createdAt,value
2019-03-22T00:01:23.795Z,93.25
2019-03-22T00:03:52.238Z,86.08
2019-03-22T00:06:20.679Z,90.70
2019-03-22T00:08:49.109Z,79.90
2019-03-22T00:11:17.564Z,90.55
2019-03-22T00:13:46.022Z,95.20
2019-03-22T00:16:14.520Z,93.17
2019-03-22T00:18:43.028Z,94.35
2019-03-22T00:21:11.483Z,95.25
2019-03-22T00:23:39.935Z,87.85
2019-03-22T00:26:08.373Z,101.87
2019-03-22T00:28:36.822Z,104.45
2019-03-22T00:31:05.266Z,99.05
2019-03-22T00:33:33.724Z,93.52
2019-03-22T00:36:02.158Z,98.55
2019-03-22T00:38:30.581Z,94.58
2019-03-22T00:40:59.030Z,101.70
2019-03-22T00:43:27.555Z,101.27
2019-03-22T00:45:55.982Z,95.85
2019-03-22T00:48:24.993Z,106.10
2019-03-22T00:50:53.462Z,106.47
2019-03-22T00:53:21.915Z,98.35
2019-03-22T00:55:50.355Z,101.72
2019-03-22T00:58:18.802Z,101.87
2019-03-22T01:00:47.241Z,108.57
2019-03-22T01:03:15.682Z,100.92
2019-03-22T01:05:44.130Z,99.58
2019-03-22T01:08:12.580Z,106.45
2019-03-22T01:10:41.017Z,95.25
2019-03-22T01:13:09.474Z,98.27
2019-03-22T01:15:37.919Z,106.80
2019-03-22T01:18:06.353Z,100.95
2019-03-22T01:20:34.793Z,110.63
2019-03-22T01:23:03.311Z,101.78
2019-03-22T01:25:31.763Z,110.25
2019-03-22T01:28:00.210Z,113.22
2019-03-22T01:30:30.269Z,103.42
2019-03-22T01:32:58.722Z,109.40
2019-03-22T01:35:27.163Z,106.45
2019-03-22T01:37:55.602Z,109.75
2019-03-22T01:40:24.050Z,109.55
2019-03-22T01:42:52.500Z,110.12
2019-03-22T01:45:20.947Z,107.47
2019-03-22T01:47:49.393Z,116.60
2019-03-22T01:50:18.421Z,108.07
2019-03-22T01:52:46.858Z,110.60
2019-03-22T01:55:15.376Z,116.75
2019-03-22T01:57:53.110Z,118.35
2019-03-22T02:00:18.177Z,118.77
2019-03-22T02:02:46.699Z,115.77
2019-03-22T02:05:15.138Z,123.00
2019-03-22T02:07:43.657Z,119.17
2019-03-22T02:10:13.037Z,127.35
2019-03-22T02:12:41.957Z,123.47
2019-03-22T02:15:15.691Z,143.43
2019-03-22T02:17:44.661Z,128.75
2019-03-22T02:20:15.153Z,128.72
2019-03-22T02:22:43.669Z,149.07
2019-03-22T02:25:12.119Z,134.72
2019-03-22T02:27:40.635Z,136.90
2019-03-22T02:30:12.089Z,135.88
2019-03-22T02:32:40.666Z,146.85
2019-03-22T02:35:09.858Z,143.45
2019-03-22T02:37:38.311Z,142.60
2019-03-22T02:40:11.215Z,143.93
2019-03-22T02:42:39.693Z,156.10
2019-03-22T02:45:12.933Z,165.25
2019-03-22T02:47:41.378Z,171.93
2019-03-22T02:50:18.570Z,179.15
2019-03-22T02:52:43.841Z,166.28
2019-03-22T02:55:12.629Z,175.97
2019-03-22T02:57:41.078Z,180.87
2019-03-22T03:00:15.477Z,201.65
2019-03-22T03:02:44.048Z,184.18
2019-03-22T03:05:13.242Z,197.35
2019-03-22T03:07:41.754Z,215.43
2019-03-22T03:10:14.643Z,199.25
2019-03-22T03:12:43.686Z,203.62
2019-03-22T03:15:17.688Z,210.20
2019-03-22T03:17:46.123Z,218.82
2019-03-22T03:20:19.357Z,226.22
2019-03-22T03:22:49.306Z,229.72
2019-03-22T03:25:17.990Z,220.00
2019-03-22T03:27:46.509Z,206.05
2019-03-22T03:30:20.560Z,224.80
2019-03-22T03:32:49.261Z,221.37
2019-03-22T03:35:19.524Z,225.07
2019-03-22T03:37:48.068Z,238.77
2019-03-22T03:40:21.601Z,248.10
2019-03-22T03:42:51.151Z,243.40
2019-03-22T03:45:31.871Z,248.03
2019-03-22T03:48:01.991Z,258.95
2019-03-22T03:50:30.563Z,271.65
2019-03-22T03:52:58.997Z,257.20
2019-03-22T03:55:28.198Z,283.98
2019-03-22T03:57:56.708Z,282.98
2019-03-22T04:00:25.182Z,279.70
2019-03-22T04:02:53.641Z,290.75
2019-03-22T04:05:22.137Z,285.22
2019-03-22T04:07:53.288Z,292.37
2019-03-22T04:10:21.723Z,277.45
2019-03-22T04:12:50.184Z,272.95
2019-03-22T04:15:18.633Z,289.52
2019-03-22T04:17:47.073Z,285.57
2019-03-22T04:20:15.969Z,279.80
2019-03-22T04:22:44.485Z,292.02
2019-03-22T04:25:12.980Z,279.68
2019-03-22T04:27:41.511Z,273.70
2019-03-22T04:30:10.152Z,273.70
2019-03-22T04:32:38.589Z,292.43
2019-03-22T04:35:07.793Z,277.57
2019-03-22T04:37:36.292Z,285.68
2019-03-22T04:40:26.694Z,303.77
2019-03-22T04:42:55.220Z,304.40
2019-03-22T04:45:44.059Z,294.67
2019-03-22T04:48:15.311Z,274.98
2019-03-22T04:50:46.092Z,306.73
2019-03-22T04:53:17.615Z,325.10
2019-03-22T04:55:48.758Z,314.23
2019-03-22T04:58:19.167Z,317.20
2019-03-22T05:00:49.043Z,317.87
2019-03-22T05:03:19.233Z,326.02
2019-03-22T05:05:50.249Z,329.05
2019-03-22T05:08:20.243Z,351.20
2019-03-22T05:10:49.129Z,347.48
2019-03-22T05:13:26.701Z,371.52
2019-03-22T05:15:55.994Z,357.15
2019-03-22T05:18:24.506Z,376.65
2019-03-22T05:20:53.779Z,344.37
2019-03-22T05:23:24.765Z,353.48
2019-03-22T05:25:56.279Z,363.73
2019-03-22T05:28:26.764Z,361.48
2019-03-22T05:31:10.342Z,348.13
2019-03-22T05:33:38.795Z,387.42
2019-03-22T05:36:07.269Z,382.68
2019-03-22T05:38:35.722Z,395.52
2019-03-22T05:41:04.176Z,404.70
2019-03-22T05:43:32.610Z,395.57
2019-03-22T05:46:01.057Z,412.18
2019-03-22T05:48:29.501Z,407.52
2019-03-22T05:50:57.946Z,417.07
2019-03-22T05:53:26.385Z,406.57
2019-03-22T05:55:54.835Z,397.35
2019-03-22T05:58:23.295Z,353.30
2019-03-22T06:00:51.727Z,338.85
2019-03-22T06:03:20.182Z,335.45
2019-03-22T06:05:49.662Z,344.95
2019-03-22T06:08:18.116Z,346.82
2019-03-22T06:10:46.547Z,337.08
2019-03-22T06:13:14.982Z,354.18
2019-03-22T06:15:43.439Z,344.57
2019-03-22T06:18:11.887Z,358.10
2019-03-22T06:20:40.352Z,361.07
2019-03-22T06:23:08.785Z,378.10
2019-03-22T06:25:37.406Z,346.02
2019-03-22T06:28:05.859Z,324.50
2019-03-22T06:30:34.386Z,333.57
2019-03-22T06:33:02.846Z,332.60
2019-03-22T06:35:31.301Z,335.30
2019-03-22T06:37:59.734Z,331.80
2019-03-22T06:40:28.184Z,350.77
2019-03-22T06:42:56.643Z,354.20
2019-03-22T06:45:25.146Z,341.02
2019-03-22T06:47:53.608Z,347.00
2019-03-22T06:50:25.178Z,317.68
2019-03-22T06:52:53.643Z,284.27
2019-03-22T06:55:22.082Z,287.00
2019-03-22T06:57:50.527Z,267.80
2019-03-22T07:00:18.978Z,263.77
2019-03-22T07:02:47.422Z,283.47
2019-03-22T07:05:19.010Z,298.40
2019-03-22T07:07:47.458Z,327.40
2019-03-22T07:10:15.911Z,335.30
2019-03-22T07:12:44.426Z,360.32
2019-03-22T07:15:13.209Z,331.13
2019-03-22T07:17:41.666Z,361.37
2019-03-22T07:20:10.449Z,343.55
2019-03-22T07:22:38.897Z,291.38
2019-03-22T07:25:08.183Z,286.60
2019-03-22T07:27:36.624Z,269.80
2019-03-22T07:30:18.104Z,266.68
2019-03-22T07:32:42.243Z,251.25
2019-03-22T07:35:11.958Z,240.60
2019-03-22T07:37:40.749Z,255.05
2019-03-22T07:40:11.646Z,273.93
2019-03-22T07:42:40.104Z,258.00
2019-03-22T07:45:10.009Z,255.85
2019-03-22T07:47:38.519Z,239.60
2019-03-22T07:50:08.304Z,220.30
2019-03-22T07:52:36.750Z,228.35
2019-03-22T07:55:07.256Z,216.08
2019-03-22T07:57:35.690Z,225.80
2019-03-22T08:00:10.037Z,227.62
2019-03-22T08:02:38.480Z,233.45
2019-03-22T08:05:07.386Z,213.82
2019-03-22T08:07:38.141Z,224.88
2019-03-22T08:10:08.280Z,193.95
2019-03-22T08:12:36.746Z,166.03
2019-03-22T08:15:08.372Z,177.25
2019-03-22T08:17:36.708Z,167.55
2019-03-22T08:20:08.497Z,167.50
2019-03-22T08:22:38.599Z,159.20
2019-03-22T08:25:07.701Z,179.95
2019-03-22T08:27:36.151Z,167.72
2019-03-22T08:30:06.356Z,178.25
2019-03-22T08:32:34.839Z,179.75
2019-03-22T08:35:03.347Z,186.35
2019-03-22T08:37:31.787Z,163.22
2019-03-22T08:40:00.465Z,174.60
2019-03-22T08:42:29.047Z,166.43
2019-03-22T08:44:57.504Z,154.60
2019-03-22T08:47:33.723Z,163.32
2019-03-22T08:49:56.217Z,147.28
2019-03-22T08:52:24.656Z,138.70
2019-03-22T08:54:53.086Z,145.45
2019-03-22T08:57:25.056Z,148.95
2019-03-22T08:59:53.242Z,154.93
2019-03-22T09:02:21.700Z,151.47
2019-03-22T09:04:50.485Z,140.65
2019-03-22T09:07:18.933Z,140.25
2019-03-22T09:09:47.428Z,148.62
2019-03-22T09:12:15.922Z,142.65
2019-03-22T09:14:46.735Z,140.77
2019-03-22T09:17:15.272Z,125.95
2019-03-22T09:19:43.783Z,142.03
2019-03-22T09:22:12.404Z,144.97
2019-03-22T09:24:40.939Z,148.35
2019-03-22T09:27:09.478Z,143.87
2019-03-22T09:29:37.973Z,139.40
2019-03-22T09:32:06.450Z,135.05
2019-03-22T09:34:35.245Z,136.10
2019-03-22T09:37:03.737Z,136.22
2019-03-22T09:39:32.258Z,128.97
2019-03-22T09:42:00.709Z,124.02
2019-03-22T09:44:42.397Z,119.75
2019-03-22T09:46:59.345Z,117.42
2019-03-22T09:49:27.875Z,114.70
2019-03-22T09:51:56.313Z,118.13
2019-03-22T09:54:24.840Z,109.48
2019-03-22T09:56:53.286Z,112.47
2019-03-22T09:59:21.830Z,110.00
2019-03-22T10:01:51.871Z,121.42
2019-03-22T10:04:20.323Z,121.15
2019-03-22T10:06:48.817Z,106.92
2019-03-22T10:09:17.345Z,110.30
2019-03-22T10:11:45.892Z,109.55
2019-03-22T10:14:14.395Z,113.88
2019-03-22T10:16:42.890Z,116.10
2019-03-22T10:19:11.356Z,116.75
2019-03-22T10:21:39.919Z,114.15
2019-03-22T10:24:09.940Z,111.85
2019-03-22T10:26:39.509Z,110.12
2019-03-22T10:29:08.043Z,112.12
2019-03-22T10:31:37.804Z,108.50
2019-03-22T10:34:08.902Z,113.20
2019-03-22T10:36:37.354Z,106.55
2019-03-22T10:39:08.135Z,101.50
2019-03-22T10:41:36.684Z,103.35
2019-03-22T10:44:10.600Z,101.92
2019-03-22T10:46:39.088Z,103.07
2019-03-22T10:49:07.592Z,107.60
2019-03-22T10:51:36.094Z,104.35
2019-03-22T10:54:04.742Z,103.55
2019-03-22T10:56:33.334Z,103.78
2019-03-22T10:59:03.326Z,98.03
2019-03-22T11:01:46.405Z,93.87
2019-03-22T11:04:02.994Z,93.75
2019-03-22T11:06:31.442Z,94.32
2019-03-22T11:09:02.102Z,81.37
2019-03-22T11:11:30.547Z,75.57
2019-03-22T11:13:58.986Z,83.97
2019-03-22T11:16:27.442Z,84.55
2019-03-22T11:18:57.269Z,83.70
2019-03-22T11:21:25.727Z,76.85
2019-03-22T11:23:54.170Z,82.55
2019-03-22T11:26:22.620Z,76.40
2019-03-22T11:28:51.059Z,78.75
2019-03-22T11:31:27.426Z,73.20
2019-03-22T11:33:52.249Z,82.40
2019-03-22T11:36:20.695Z,75.87
2019-03-22T11:38:49.143Z,83.52
2019-03-22T11:41:17.597Z,67.75
2019-03-22T11:43:46.040Z,71.92
2019-03-22T11:46:14.502Z,73.15
2019-03-22T11:48:42.941Z,77.08
2019-03-22T11:51:11.382Z,73.85
2019-03-22T11:53:39.828Z,74.05
2019-03-22T11:56:09.487Z,72.72
2019-03-22T11:58:38.014Z,69.77
2019-03-22T12:01:06.537Z,68.45
2019-03-22T12:03:34.995Z,69.25
2019-03-22T12:06:03.602Z,74.22
2019-03-22T12:08:32.059Z,69.42
2019-03-22T12:11:00.491Z,57.83
2019-03-22T12:13:28.929Z,56.37
2019-03-22T12:15:57.397Z,56.40
2019-03-22T12:18:25.847Z,57.58
2019-03-22T12:20:56.460Z,55.65
2019-03-22T12:23:24.446Z,58.90
2019-03-22T12:25:53.960Z,58.25
2019-03-22T12:28:22.399Z,61.35
2019-03-22T12:30:52.304Z,59.73
2019-03-22T12:33:20.747Z,56.42
2019-03-22T12:35:49.195Z,52.38
2019-03-22T12:38:19.165Z,56.23
2019-03-22T12:40:47.850Z,54.38
2019-03-22T12:43:16.311Z,55.95
2019-03-22T12:45:44.773Z,55.73
2019-03-22T12:48:13.266Z,57.00
2019-03-22T12:50:41.719Z,57.53
2019-03-22T12:53:12.945Z,49.48
2019-03-22T12:55:41.391Z,46.88
2019-03-22T12:58:09.855Z,47.85
2019-03-22T13:00:39.208Z,49.00
2019-03-22T13:03:07.672Z,46.70
2019-03-22T13:05:36.123Z,46.98
2019-03-22T13:08:04.646Z,48.63
2019-03-22T13:10:36.154Z,47.60
2019-03-22T13:13:04.608Z,47.90
2019-03-22T13:15:33.050Z,44.98
2019-03-22T13:18:01.506Z,45.38
2019-03-22T13:20:29.956Z,44.48
2019-03-22T13:22:58.401Z,48.78
2019-03-22T13:25:26.864Z,43.83
2019-03-22T13:27:55.325Z,44.75
2019-03-22T13:30:32.294Z,42.13
2019-03-22T13:33:00.748Z,48.83
2019-03-22T13:35:29.198Z,46.18
2019-03-22T13:37:57.643Z,41.63
2019-03-22T13:40:26.107Z,40.90
2019-03-22T13:42:54.873Z,41.55
2019-03-22T13:45:23.318Z,34.90
2019-03-22T13:47:51.776Z,36.15
2019-03-22T13:50:20.307Z,29.40
2019-03-22T13:52:48.770Z,32.40
2019-03-22T13:55:17.290Z,32.10
2019-03-22T13:57:45.738Z,33.85
2019-03-22T14:00:18.255Z,34.67
2019-03-22T14:02:46.793Z,35.05
2019-03-22T14:05:15.327Z,34.45
2019-03-22T14:07:43.796Z,32.90
2019-03-22T14:10:20.739Z,32.25
2019-03-22T14:12:49.182Z,37.10
2019-03-22T14:15:17.672Z,36.70
2019-03-22T14:17:46.132Z,36.20
2019-03-22T14:20:14.596Z,34.55
2019-03-22T14:22:43.034Z,36.03
2019-03-22T14:25:11.504Z,32.80
2019-03-22T14:27:39.942Z,33.13
2019-03-22T14:30:09.122Z,34.53
2019-03-22T14:32:37.579Z,31.25
2019-03-22T14:35:08.063Z,33.28
2019-03-22T14:37:36.516Z,31.07
2019-03-22T14:40:06.666Z,26.70
2019-03-22T14:42:35.121Z,32.78
2019-03-22T14:45:05.903Z,35.05
2019-03-22T14:47:34.355Z,31.17
2019-03-22T14:50:02.816Z,29.25
2019-03-22T14:52:31.255Z,29.85
2019-03-22T14:54:59.706Z,30.60
2019-03-22T14:57:28.158Z,33.73
2019-03-22T14:59:59.157Z,28.70
2019-03-22T15:02:26.789Z,31.73
2019-03-22T15:04:55.227Z,30.45
2019-03-22T15:07:23.678Z,24.98
2019-03-22T15:09:52.130Z,28.85
2019-03-22T15:12:20.576Z,23.98
2019-03-22T15:15:05.610Z,25.48
2019-03-22T15:17:51.861Z,26.65
2019-03-22T15:20:39.867Z,25.17
2019-03-22T15:23:13.492Z,29.05
2019-03-22T15:25:46.699Z,19.73
2019-03-22T15:28:22.385Z,23.80
2019-03-22T15:30:54.442Z,25.32
2019-03-22T15:33:38.521Z,25.02
2019-03-22T15:36:08.757Z,24.75
2019-03-22T15:38:57.087Z,24.80
2019-03-22T15:41:25.646Z,23.30
2019-03-22T15:43:54.151Z,19.65
2019-03-22T15:46:22.642Z,22.70
2019-03-22T15:48:51.090Z,22.10
2019-03-22T15:51:19.547Z,20.48
2019-03-22T15:53:47.999Z,24.92
2019-03-22T15:56:17.994Z,22.20
2019-03-22T15:58:46.460Z,22.15
2019-03-22T16:01:14.918Z,20.65
2019-03-22T16:03:44.479Z,21.57
2019-03-22T16:06:13.293Z,20.10
2019-03-22T16:08:41.755Z,24.60
2019-03-22T16:11:10.214Z,23.85
2019-03-22T16:13:38.694Z,21.70
2019-03-22T16:16:09.362Z,19.77
2019-03-22T16:18:38.000Z,22.73
2019-03-22T16:21:07.024Z,23.02
2019-03-22T16:23:35.467Z,22.32
2019-03-22T16:26:03.912Z,17.92
2019-03-22T16:28:32.360Z,20.80
2019-03-22T16:31:00.799Z,20.48
2019-03-22T16:33:29.242Z,17.37
2019-03-22T16:35:59.219Z,17.67
2019-03-22T16:38:29.327Z,18.80
2019-03-22T16:40:57.768Z,17.67
2019-03-22T16:43:26.218Z,21.65
2019-03-22T16:45:54.676Z,17.67
2019-03-22T16:48:23.112Z,17.70
2019-03-22T16:50:52.358Z,19.62
2019-03-22T16:53:20.806Z,22.27
2019-03-22T16:55:49.413Z,18.82
2019-03-22T16:58:17.960Z,20.25
2019-03-22T17:00:46.412Z,19.60
2019-03-22T17:03:14.846Z,20.20
2019-03-22T17:05:43.303Z,17.73
2019-03-22T17:08:11.763Z,21.40
2019-03-22T17:10:40.274Z,20.92
2019-03-22T17:13:08.723Z,25.10
2019-03-22T17:15:37.166Z,21.85
2019-03-22T17:18:05.982Z,25.35
2019-03-22T17:20:35.610Z,23.60
2019-03-22T17:23:04.116Z,24.10
2019-03-22T17:25:33.290Z,18.82
2019-03-22T17:28:01.752Z,23.57
2019-03-22T17:30:31.848Z,24.55
2019-03-22T17:33:00.292Z,21.65
2019-03-22T17:35:28.740Z,26.05
2019-03-22T17:37:57.186Z,22.32
2019-03-22T17:40:25.640Z,26.23
2019-03-22T17:42:54.074Z,19.50
2019-03-22T17:45:22.598Z,31.30
2019-03-22T17:47:51.039Z,28.50
2019-03-22T17:50:19.936Z,20.97
2019-03-22T17:52:48.390Z,25.48
2019-03-22T17:55:16.905Z,20.95
2019-03-22T17:57:45.338Z,23.73
2019-03-22T18:00:18.146Z,33.25
2019-03-22T18:02:46.588Z,25.02
2019-03-22T18:05:15.313Z,25.82
2019-03-22T18:07:43.742Z,28.73
2019-03-22T18:10:12.736Z,31.48
2019-03-22T18:12:42.706Z,23.77
2019-03-22T18:15:12.799Z,26.70
2019-03-22T18:17:41.250Z,22.87
2019-03-22T18:20:12.199Z,28.95
2019-03-22T18:22:40.655Z,27.90
2019-03-22T18:25:10.547Z,25.62
2019-03-22T18:27:39.019Z,28.42
2019-03-22T18:30:12.115Z,25.57
2019-03-22T18:32:40.561Z,25.92
2019-03-22T18:35:09.856Z,27.05
2019-03-22T18:37:38.299Z,22.90
2019-03-22T18:40:12.034Z,38.50
2019-03-22T18:42:42.136Z,54.20
2019-03-22T18:45:14.357Z,44.98
2019-03-22T18:47:43.089Z,52.40
2019-03-22T18:50:12.458Z,59.93
2019-03-22T18:52:41.042Z,51.33
2019-03-22T18:55:10.028Z,45.35
2019-03-22T18:57:38.475Z,42.62
2019-03-22T19:00:09.159Z,41.65
2019-03-22T19:02:37.623Z,48.08
2019-03-22T19:05:07.706Z,44.08
2019-03-22T19:07:38.102Z,42.23
2019-03-22T19:10:09.467Z,46.63
2019-03-22T19:12:37.911Z,53.00
2019-03-22T19:15:09.111Z,48.00
2019-03-22T19:17:38.827Z,45.12
2019-03-22T19:20:11.602Z,35.30
2019-03-22T19:22:40.043Z,33.08
2019-03-22T19:25:09.863Z,29.32
2019-03-22T19:27:39.485Z,29.80
2019-03-22T19:30:15.518Z,30.88
2019-03-22T19:32:43.953Z,35.75
2019-03-22T19:35:12.841Z,31.17
2019-03-22T19:37:42.837Z,32.28
2019-03-22T19:40:15.693Z,32.70
2019-03-22T19:42:44.219Z,31.60
2019-03-22T19:45:14.205Z,28.25
2019-03-22T19:47:42.944Z,30.77
2019-03-22T19:50:13.666Z,32.40
2019-03-22T19:52:48.248Z,34.55
2019-03-22T19:55:16.682Z,32.65
2019-03-22T19:57:45.143Z,35.45
2019-03-22T20:00:19.030Z,52.98
2019-03-22T20:02:51.577Z,51.13
2019-03-22T20:05:29.080Z,65.25
2019-03-22T20:07:57.999Z,75.52
2019-03-22T20:10:26.433Z,66.75
2019-03-22T20:12:55.139Z,74.00
2019-03-22T20:15:25.387Z,76.62
2019-03-22T20:17:53.814Z,72.03
2019-03-22T20:20:23.802Z,66.90
2019-03-22T20:22:52.247Z,57.88
2019-03-22T20:25:21.824Z,61.40
2019-03-22T20:27:50.276Z,60.48
2019-03-22T20:30:19.457Z,55.48
2019-03-22T20:32:47.941Z,56.98
2019-03-22T20:35:17.165Z,57.65
2019-03-22T20:37:45.720Z,59.70
2019-03-22T20:40:19.087Z,68.05
2019-03-22T20:42:47.550Z,62.55
2019-03-22T20:45:24.164Z,61.25
2019-03-22T20:47:46.779Z,65.57
2019-03-22T20:50:15.362Z,65.92
2019-03-22T20:52:43.801Z,68.92
2019-03-22T20:55:12.240Z,62.38
2019-03-22T20:57:40.679Z,79.70
2019-03-22T21:00:12.543Z,69.40
2019-03-22T21:02:40.974Z,74.80
2019-03-22T21:05:09.986Z,80.90
2019-03-22T21:07:38.463Z,79.87
2019-03-22T21:10:09.509Z,98.72
2019-03-22T21:12:37.950Z,97.20
2019-03-22T21:15:07.998Z,95.57
2019-03-22T21:17:36.512Z,121.82
2019-03-22T21:20:10.047Z,115.72
2019-03-22T21:22:38.497Z,130.15
2019-03-22T21:25:07.883Z,137.18
2019-03-22T21:28:00.805Z,140.52
2019-03-22T21:30:29.250Z,102.20
2019-03-22T21:32:57.706Z,82.92
2019-03-22T21:35:36.694Z,63.80
2019-03-22T21:37:56.315Z,59.42
2019-03-22T21:40:24.754Z,61.65
2019-03-22T21:42:53.201Z,62.03
2019-03-22T21:45:21.639Z,73.67
2019-03-22T21:47:50.087Z,73.60
2019-03-22T21:50:18.532Z,107.03
2019-03-22T21:52:46.985Z,77.30
2019-03-22T21:55:15.415Z,79.05
2019-03-22T21:57:43.862Z,81.92
2019-03-22T22:00:13.759Z,76.02
2019-03-22T22:02:42.204Z,90.70
2019-03-22T22:05:10.651Z,110.42
2019-03-22T22:07:39.671Z,107.67
2019-03-22T22:10:09.416Z,120.67
2019-03-22T22:12:38.204Z,102.53
2019-03-22T22:15:09.801Z,125.97
2019-03-22T22:17:40.363Z,144.57
2019-03-22T22:20:09.045Z,144.40
2019-03-22T22:22:37.579Z,143.87
2019-03-22T22:25:07.682Z,164.00
2019-03-22T22:27:36.185Z,161.70
2019-03-22T22:30:09.939Z,156.82
2019-03-22T22:32:38.388Z,168.62
2019-03-22T22:35:08.726Z,184.78
2019-03-22T22:37:37.179Z,180.37
2019-03-22T22:40:10.926Z,188.15
2019-03-22T22:42:39.367Z,178.30
2019-03-22T22:45:10.205Z,172.95
2019-03-22T22:47:40.425Z,174.97
2019-03-22T22:50:10.921Z,163.22
2019-03-22T22:52:39.361Z,152.95
2019-03-22T22:55:08.839Z,169.45
2019-03-22T22:57:37.289Z,183.85
2019-03-22T23:00:16.040Z,178.65
2019-03-22T23:02:44.734Z,194.02
2019-03-22T23:05:13.166Z,202.43
2019-03-22T23:07:42.928Z,192.98
2019-03-22T23:10:12.812Z,196.47
2019-03-22T23:12:41.855Z,206.70
2019-03-22T23:15:10.945Z,192.72
2019-03-22T23:17:39.375Z,197.43
2019-03-22T23:20:09.359Z,213.85
2019-03-22T23:22:37.790Z,198.87
2019-03-22T23:25:07.680Z,198.60
2019-03-22T23:27:38.507Z,208.30
2019-03-22T23:30:08.982Z,199.32
2019-03-22T23:32:37.429Z,215.05
2019-03-22T23:35:07.114Z,212.25
2019-03-22T23:37:35.569Z,204.43
2019-03-22T23:40:05.353Z,200.47
2019-03-22T23:42:33.785Z,191.68
2019-03-22T23:45:02.247Z,208.38
2019-03-22T23:47:30.691Z,212.63
2019-03-22T23:49:59.139Z,198.65
2019-03-22T23:52:27.588Z,201.88
2019-03-22T23:54:56.029Z,203.50
2019-03-22T23:57:24.476Z,200.10
2019-03-22T23:59:52.913Z,211.77
